sensor_id;sensor_type;location;lat;lon;timestamp;P1;durP1;ratioP1;P2;durP2;ratioP2
17372;SDS011;8803;48.116;11.590;2022-09-16T00:01:40;2.83;;;2.60;;
17372;SDS011;8803;48.116;11.590;2022-09-16T00:03:44;4.43;;;2.37;;
17372;SDS011;8803;48.116;11.590;2022-09-16T00:05:57;2.80;;;2.50;;
17372;SDS011;8803;48.116;11.590;2022-09-16T00:08:01;3.13;;;2.23;;
17372;SDS011;8803;48.116;11.590;2022-09-16T00:10:14;2.80;;;2.37;;
17372;SDS011;8803;48.116;11.590;2022-09-16T00:12:18;2.87;;;2.57;;
17372;SDS011;8803;48.116;11.590;2022-09-16T00:14:22;2.63;;;2.43;;
17372;SDS011;8803;48.116;11.590;2022-09-16T00:16:26;3.27;;;2.80;;
17372;SDS011;8803;48.116;11.590;2022-09-16T00:18:39;3.97;;;3.10;;
17372;SDS011;8803;48.116;11.590;2022-09-16T00:20:43;3.50;;;2.60;;
17372;SDS011;8803;48.116;11.590;2022-09-16T00:22:48;2.67;;;2.47;;
17372;SDS011;8803;48.116;11.590;2022-09-16T00:24:52;3.80;;;2.80;;
17372;SDS011;8803;48.116;11.590;2022-09-16T00:29:07;2.47;;;2.27;;
17372;SDS011;8803;48.116;11.590;2022-09-16T00:31:11;2.73;;;2.53;;
17372;SDS011;8803;48.116;11.590;2022-09-16T00:33:15;2.97;;;2.67;;
17372;SDS011;8803;48.116;11.590;2022-09-16T00:35:20;4.03;;;2.73;;
17372;SDS011;8803;48.116;11.590;2022-09-16T00:39:35;3.27;;;2.67;;
17372;SDS011;8803;48.116;11.590;2022-09-16T00:41:39;4.30;;;2.90;;
17372;SDS011;8803;48.116;11.590;2022-09-16T00:46:02;3.10;;;2.80;;
17372;SDS011;8803;48.116;11.590;2022-09-16T00:48:08;3.27;;;2.97;;
17372;SDS011;8803;48.116;11.590;2022-09-16T00:50:24;2.93;;;2.63;;
17372;SDS011;8803;48.116;11.590;2022-09-16T00:52:29;3.13;;;2.73;;
17372;SDS011;8803;48.116;11.590;2022-09-16T00:54:33;3.57;;;2.60;;
17372;SDS011;8803;48.116;11.590;2022-09-16T00:58:54;2.27;;;2.07;;
17372;SDS011;8803;48.116;11.590;2022-09-16T01:01:03;2.40;;;2.20;;
17372;SDS011;8803;48.116;11.590;2022-09-16T01:03:07;2.40;;;2.20;;
17372;SDS011;8803;48.116;11.590;2022-09-16T01:05:11;3.93;;;2.80;;
17372;SDS011;8803;48.116;11.590;2022-09-16T01:09:29;2.77;;;2.50;;
17372;SDS011;8803;48.116;11.590;2022-09-16T01:11:34;2.97;;;2.60;;
17372;SDS011;8803;48.116;11.590;2022-09-16T01:13:38;3.63;;;2.77;;
17372;SDS011;8803;48.116;11.590;2022-09-16T01:15:46;2.70;;;2.33;;
17372;SDS011;8803;48.116;11.590;2022-09-16T01:23:00;2.80;;;2.60;;
17372;SDS011;8803;48.116;11.590;2022-09-16T01:25:10;3.43;;;2.70;;
17372;SDS011;8803;48.116;11.590;2022-09-16T01:27:31;2.67;;;2.40;;
17372;SDS011;8803;48.116;11.590;2022-09-16T01:32:29;3.87;;;2.47;;
17372;SDS011;8803;48.116;11.590;2022-09-16T01:34:45;4.33;;;2.47;;
17372;SDS011;8803;48.116;11.590;2022-09-16T01:36:52;3.43;;;2.90;;
17372;SDS011;8803;48.116;11.590;2022-09-16T01:39:11;3.33;;;2.80;;
17372;SDS011;8803;48.116;11.590;2022-09-16T01:41:19;2.77;;;2.57;;
17372;SDS011;8803;48.116;11.590;2022-09-16T01:43:34;2.97;;;2.70;;
17372;SDS011;8803;48.116;11.590;2022-09-16T01:45:43;3.20;;;2.53;;
17372;SDS011;8803;48.116;11.590;2022-09-16T01:47:58;3.23;;;2.60;;
17372;SDS011;8803;48.116;11.590;2022-09-16T01:50:06;3.40;;;2.77;;
17372;SDS011;8803;48.116;11.590;2022-09-16T01:52:16;4.83;;;2.80;;
17372;SDS011;8803;48.116;11.590;2022-09-16T01:54:30;3.13;;;2.90;;
17372;SDS011;8803;48.116;11.590;2022-09-16T01:56:38;2.60;;;2.40;;
17372;SDS011;8803;48.116;11.590;2022-09-16T01:58:44;3.23;;;2.93;;
17372;SDS011;8803;48.116;11.590;2022-09-16T02:00:50;3.03;;;2.73;;
17372;SDS011;8803;48.116;11.590;2022-09-16T02:03:05;3.27;;;2.60;;
17372;SDS011;8803;48.116;11.590;2022-09-16T02:05:11;3.00;;;2.47;;
17372;SDS011;8803;48.116;11.590;2022-09-16T02:07:18;3.27;;;2.80;;
17372;SDS011;8803;48.116;11.590;2022-09-16T02:09:33;3.53;;;3.20;;
17372;SDS011;8803;48.116;11.590;2022-09-16T02:11:38;3.87;;;3.07;;
17372;SDS011;8803;48.116;11.590;2022-09-16T02:13:46;3.30;;;3.00;;
17372;SDS011;8803;48.116;11.590;2022-09-16T02:15:52;2.93;;;2.70;;
17372;SDS011;8803;48.116;11.590;2022-09-16T02:18:00;3.10;;;2.80;;
17372;SDS011;8803;48.116;11.590;2022-09-16T02:20:07;3.20;;;2.90;;
17372;SDS011;8803;48.116;11.590;2022-09-16T02:22:20;2.93;;;2.70;;
17372;SDS011;8803;48.116;11.590;2022-09-16T02:24:27;3.07;;;2.87;;
17372;SDS011;8803;48.116;11.590;2022-09-16T02:26:33;2.80;;;2.50;;
17372;SDS011;8803;48.116;11.590;2022-09-16T02:28:48;3.57;;;2.93;;
17372;SDS011;8803;48.116;11.590;2022-09-16T02:30:55;3.10;;;2.80;;
17372;SDS011;8803;48.116;11.590;2022-09-16T02:33:02;3.60;;;3.00;;
17372;SDS011;8803;48.116;11.590;2022-09-16T02:35:16;4.97;;;3.27;;
17372;SDS011;8803;48.116;11.590;2022-09-16T02:37:23;3.03;;;2.80;;
17372;SDS011;8803;48.116;11.590;2022-09-16T02:39:31;3.00;;;2.80;;
17372;SDS011;8803;48.116;11.590;2022-09-16T02:41:46;2.83;;;2.57;;
17372;SDS011;8803;48.116;11.590;2022-09-16T02:43:50;3.53;;;2.80;;
17372;SDS011;8803;48.116;11.590;2022-09-16T02:46:06;3.57;;;2.87;;
17372;SDS011;8803;48.116;11.590;2022-09-16T02:48:14;4.13;;;2.93;;
17372;SDS011;8803;48.116;11.590;2022-09-16T02:50:33;3.27;;;2.97;;
17372;SDS011;8803;48.116;11.590;2022-09-16T02:52:39;3.83;;;2.77;;
17372;SDS011;8803;48.116;11.590;2022-09-16T02:54:48;2.80;;;2.50;;
17372;SDS011;8803;48.116;11.590;2022-09-16T02:57:01;2.83;;;2.53;;
17372;SDS011;8803;48.116;11.590;2022-09-16T02:59:05;3.50;;;2.70;;
17372;SDS011;8803;48.116;11.590;2022-09-16T03:01:19;3.00;;;2.70;;
17372;SDS011;8803;48.116;11.590;2022-09-16T03:03:25;3.70;;;3.03;;
17372;SDS011;8803;48.116;11.590;2022-09-16T03:05:29;4.67;;;2.93;;
17372;SDS011;8803;48.116;11.590;2022-09-16T03:07:33;3.20;;;2.73;;
17372;SDS011;8803;48.116;11.590;2022-09-16T03:09:45;4.50;;;2.90;;
17372;SDS011;8803;48.116;11.590;2022-09-16T03:12:01;3.30;;;3.00;;
17372;SDS011;8803;48.116;11.590;2022-09-16T03:14:22;3.27;;;2.70;;
17372;SDS011;8803;48.116;11.590;2022-09-16T03:16:33;2.67;;;2.40;;
17372;SDS011;8803;48.116;11.590;2022-09-16T03:18:50;3.50;;;2.90;;
17372;SDS011;8803;48.116;11.590;2022-09-16T03:21:04;4.77;;;2.80;;
17372;SDS011;8803;48.116;11.590;2022-09-16T03:23:20;3.57;;;2.87;;
17372;SDS011;8803;48.116;11.590;2022-09-16T03:25:30;2.93;;;2.50;;
17372;SDS011;8803;48.116;11.590;2022-09-16T03:27:44;3.00;;;2.80;;
17372;SDS011;8803;48.116;11.590;2022-09-16T03:29:51;3.20;;;2.60;;
17372;SDS011;8803;48.116;11.590;2022-09-16T03:34:09;2.80;;;2.60;;
17372;SDS011;8803;48.116;11.590;2022-09-16T03:36:17;5.97;;;3.07;;
17372;SDS011;8803;48.116;11.590;2022-09-16T03:38:33;3.50;;;3.10;;
17372;SDS011;8803;48.116;11.590;2022-09-16T03:40:39;4.13;;;2.87;;
17372;SDS011;8803;48.116;11.590;2022-09-16T03:42:44;3.20;;;2.90;;
17372;SDS011;8803;48.116;11.590;2022-09-16T03:44:56;3.17;;;2.87;;
17372;SDS011;8803;48.116;11.590;2022-09-16T03:47:00;3.07;;;2.77;;
17372;SDS011;8803;48.116;11.590;2022-09-16T03:49:14;3.03;;;2.83;;
17372;SDS011;8803;48.116;11.590;2022-09-16T03:51:18;3.20;;;2.77;;
17372;SDS011;8803;48.116;11.590;2022-09-16T03:53:22;3.50;;;3.20;;
17372;SDS011;8803;48.116;11.590;2022-09-16T03:55:34;127.83;;;15.67;;
17372;SDS011;8803;48.116;11.590;2022-09-16T03:59:49;3.43;;;3.00;;
17372;SDS011;8803;48.116;11.590;2022-09-16T04:01:53;2.87;;;2.67;;
17372;SDS011;8803;48.116;11.590;2022-09-16T04:04:06;3.50;;;3.20;;
17372;SDS011;8803;48.116;11.590;2022-09-16T04:06:09;3.33;;;3.03;;
17372;SDS011;8803;48.116;11.590;2022-09-16T04:08:13;3.83;;;3.10;;
17372;SDS011;8803;48.116;11.590;2022-09-16T04:10:27;4.00;;;3.23;;
17372;SDS011;8803;48.116;11.590;2022-09-16T04:14:42;4.10;;;3.70;;
17372;SDS011;8803;48.116;11.590;2022-09-16T04:16:46;3.40;;;3.10;;
17372;SDS011;8803;48.116;11.590;2022-09-16T04:19:00;3.90;;;3.10;;
17372;SDS011;8803;48.116;11.590;2022-09-16T04:21:04;3.60;;;3.30;;
17372;SDS011;8803;48.116;11.590;2022-09-16T04:23:16;3.40;;;3.10;;
17372;SDS011;8803;48.116;11.590;2022-09-16T04:25:20;3.40;;;3.10;;
17372;SDS011;8803;48.116;11.590;2022-09-16T04:27:34;3.40;;;2.93;;
17372;SDS011;8803;48.116;11.590;2022-09-16T04:29:38;5.43;;;3.40;;
17372;SDS011;8803;48.116;11.590;2022-09-16T04:33:56;5.40;;;3.83;;
17372;SDS011;8803;48.116;11.590;2022-09-16T04:36:03;4.53;;;3.00;;
17372;SDS011;8803;48.116;11.590;2022-09-16T04:38:19;3.93;;;3.53;;
17372;SDS011;8803;48.116;11.590;2022-09-16T04:40:23;4.23;;;3.00;;
17372;SDS011;8803;48.116;11.590;2022-09-16T04:42:35;3.77;;;3.03;;
17372;SDS011;8803;48.116;11.590;2022-09-16T04:44:39;3.57;;;3.13;;
17372;SDS011;8803;48.116;11.590;2022-09-16T04:46:43;3.50;;;3.20;;
17372;SDS011;8803;48.116;11.590;2022-09-16T04:51:01;5.07;;;3.70;;
17372;SDS011;8803;48.116;11.590;2022-09-16T04:53:05;3.93;;;3.53;;
17372;SDS011;8803;48.116;11.590;2022-09-16T04:55:09;5.93;;;3.30;;
17372;SDS011;8803;48.116;11.590;2022-09-16T04:57:13;3.37;;;3.07;;
17372;SDS011;8803;48.116;11.590;2022-09-16T04:59:25;3.57;;;3.23;;
17372;SDS011;8803;48.116;11.590;2022-09-16T05:01:30;3.37;;;3.07;;
17372;SDS011;8803;48.116;11.590;2022-09-16T05:03:35;4.53;;;3.30;;
17372;SDS011;8803;48.116;11.590;2022-09-16T05:05:47;3.37;;;3.07;;
17372;SDS011;8803;48.116;11.590;2022-09-16T05:07:51;3.80;;;3.33;;
17372;SDS011;8803;48.116;11.590;2022-09-16T05:10:05;3.77;;;3.47;;
17372;SDS011;8803;48.116;11.590;2022-09-16T05:12:09;3.73;;;3.40;;
17372;SDS011;8803;48.116;11.590;2022-09-16T05:14:22;4.17;;;3.53;;
17372;SDS011;8803;48.116;11.590;2022-09-16T05:16:26;3.67;;;3.37;;
17372;SDS011;8803;48.116;11.590;2022-09-16T05:18:30;4.00;;;3.53;;
17372;SDS011;8803;48.116;11.590;2022-09-16T05:20:42;4.73;;;4.03;;
17372;SDS011;8803;48.116;11.590;2022-09-16T05:22:48;4.77;;;3.70;;
17372;SDS011;8803;48.116;11.590;2022-09-16T05:24:52;4.63;;;3.90;;
17372;SDS011;8803;48.116;11.590;2022-09-16T05:26:55;5.70;;;4.70;;
17372;SDS011;8803;48.116;11.590;2022-09-16T05:29:09;4.43;;;4.03;;
17372;SDS011;8803;48.116;11.590;2022-09-16T05:31:15;5.90;;;3.93;;
17372;SDS011;8803;48.116;11.590;2022-09-16T05:33:20;4.43;;;3.87;;
17372;SDS011;8803;48.116;11.590;2022-09-16T05:35:32;6.07;;;4.20;;
17372;SDS011;8803;48.116;11.590;2022-09-16T05:39:50;5.77;;;4.10;;
17372;SDS011;8803;48.116;11.590;2022-09-16T05:41:56;5.40;;;4.23;;
17372;SDS011;8803;48.116;11.590;2022-09-16T05:44:09;5.63;;;4.77;;
17372;SDS011;8803;48.116;11.590;2022-09-16T05:46:15;4.33;;;3.97;;
17372;SDS011;8803;48.116;11.590;2022-09-16T05:48:31;5.87;;;4.63;;
17372;SDS011;8803;48.116;11.590;2022-09-16T05:52:47;5.60;;;4.63;;
17372;SDS011;8803;48.116;11.590;2022-09-16T05:54:51;8.77;;;4.60;;
17372;SDS011;8803;48.116;11.590;2022-09-16T05:56:55;4.60;;;4.20;;
17372;SDS011;8803;48.116;11.590;2022-09-16T05:59:09;5.70;;;5.13;;
17372;SDS011;8803;48.116;11.590;2022-09-16T06:01:15;5.70;;;5.20;;
17372;SDS011;8803;48.116;11.590;2022-09-16T06:03:28;5.80;;;4.53;;
17372;SDS011;8803;48.116;11.590;2022-09-16T06:05:33;4.80;;;4.30;;
17372;SDS011;8803;48.116;11.590;2022-09-16T06:07:36;6.47;;;4.80;;
17372;SDS011;8803;48.116;11.590;2022-09-16T06:09:49;5.27;;;4.77;;
17372;SDS011;8803;48.116;11.590;2022-09-16T06:11:53;4.97;;;4.20;;
17372;SDS011;8803;48.116;11.590;2022-09-16T06:13:57;6.73;;;4.90;;
17372;SDS011;8803;48.116;11.590;2022-09-16T06:16:02;5.83;;;4.57;;
17372;SDS011;8803;48.116;11.590;2022-09-16T06:18:15;5.90;;;5.37;;
17372;SDS011;8803;48.116;11.590;2022-09-16T06:22:31;5.40;;;4.90;;
17372;SDS011;8803;48.116;11.590;2022-09-16T06:24:35;5.80;;;4.73;;
17372;SDS011;8803;48.116;11.590;2022-09-16T06:26:40;5.60;;;4.73;;
17372;SDS011;8803;48.116;11.590;2022-09-16T06:28:45;6.07;;;5.27;;
17372;SDS011;8803;48.116;11.590;2022-09-16T06:30:50;5.87;;;5.27;;
17372;SDS011;8803;48.116;11.590;2022-09-16T06:33:11;7.30;;;5.07;;
17372;SDS011;8803;48.116;11.590;2022-09-16T06:35:16;5.83;;;4.63;;
17372;SDS011;8803;48.116;11.590;2022-09-16T06:37:20;5.67;;;5.17;;
17372;SDS011;8803;48.116;11.590;2022-09-16T06:39:35;6.40;;;4.57;;
17372;SDS011;8803;48.116;11.590;2022-09-16T06:41:39;5.10;;;4.60;;
17372;SDS011;8803;48.116;11.590;2022-09-16T06:43:43;5.77;;;4.93;;
17372;SDS011;8803;48.116;11.590;2022-09-16T06:45:47;5.60;;;5.10;;
17372;SDS011;8803;48.116;11.590;2022-09-16T06:48:01;5.93;;;5.30;;
17372;SDS011;8803;48.116;11.590;2022-09-16T06:50:07;4.93;;;4.47;;
17372;SDS011;8803;48.116;11.590;2022-09-16T06:52:20;6.30;;;4.40;;
17372;SDS011;8803;48.116;11.590;2022-09-16T06:54:24;6.33;;;5.63;;
17372;SDS011;8803;48.116;11.590;2022-09-16T06:56:28;5.57;;;5.00;;
17372;SDS011;8803;48.116;11.590;2022-09-16T06:58:34;5.60;;;5.00;;
17372;SDS011;8803;48.116;11.590;2022-09-16T07:00:48;5.43;;;4.93;;
17372;SDS011;8803;48.116;11.590;2022-09-16T07:02:52;7.17;;;5.23;;
17372;SDS011;8803;48.116;11.590;2022-09-16T07:05:08;5.27;;;4.77;;
17372;SDS011;8803;48.116;11.590;2022-09-16T07:07:12;5.63;;;5.03;;
17372;SDS011;8803;48.116;11.590;2022-09-16T07:09:24;6.73;;;5.23;;
17372;SDS011;8803;48.116;11.590;2022-09-16T07:11:28;5.90;;;4.70;;
17372;SDS011;8803;48.116;11.590;2022-09-16T07:13:32;5.93;;;5.30;;
17372;SDS011;8803;48.116;11.590;2022-09-16T07:15:36;5.97;;;4.97;;
17372;SDS011;8803;48.116;11.590;2022-09-16T07:17:52;5.23;;;4.53;;
17372;SDS011;8803;48.116;11.590;2022-09-16T07:19:56;7.03;;;5.90;;
17372;SDS011;8803;48.116;11.590;2022-09-16T07:22:00;5.93;;;5.30;;
17372;SDS011;8803;48.116;11.590;2022-09-16T07:24:13;7.17;;;4.80;;
17372;SDS011;8803;48.116;11.590;2022-09-16T07:26:18;5.30;;;4.80;;
17372;SDS011;8803;48.116;11.590;2022-09-16T07:30:34;5.10;;;4.57;;
17372;SDS011;8803;48.116;11.590;2022-09-16T07:32:38;5.57;;;4.97;;
17372;SDS011;8803;48.116;11.590;2022-09-16T07:34:50;7.10;;;5.13;;
17372;SDS011;8803;48.116;11.590;2022-09-16T07:39:07;6.67;;;4.80;;
17372;SDS011;8803;48.116;11.590;2022-09-16T07:41:12;7.07;;;5.90;;
17372;SDS011;8803;48.116;11.590;2022-09-16T07:43:17;6.67;;;6.07;;
17372;SDS011;8803;48.116;11.590;2022-09-16T07:45:20;7.40;;;6.03;;
17372;SDS011;8803;48.116;11.590;2022-09-16T07:49:35;5.33;;;4.83;;
17372;SDS011;8803;48.116;11.590;2022-09-16T07:51:39;6.40;;;5.80;;
17372;SDS011;8803;48.116;11.590;2022-09-16T07:53:44;6.13;;;5.53;;
17372;SDS011;8803;48.116;11.590;2022-09-16T07:55:59;6.33;;;5.73;;
17372;SDS011;8803;48.116;11.590;2022-09-16T07:58:04;5.83;;;5.17;;
17372;SDS011;8803;48.116;11.590;2022-09-16T08:00:17;6.43;;;5.13;;
17372;SDS011;8803;48.116;11.590;2022-09-16T08:02:21;5.40;;;4.90;;
17372;SDS011;8803;48.116;11.590;2022-09-16T08:04:25;6.50;;;5.03;;
17372;SDS011;8803;48.116;11.590;2022-09-16T08:06:29;7.63;;;5.63;;
17372;SDS011;8803;48.116;11.590;2022-09-16T08:08:45;5.97;;;5.37;;
17372;SDS011;8803;48.116;11.590;2022-09-16T08:10:52;5.60;;;5.10;;
17372;SDS011;8803;48.116;11.590;2022-09-16T08:13:05;6.93;;;5.60;;
17372;SDS011;8803;48.116;11.590;2022-09-16T08:15:10;6.33;;;5.10;;
17372;SDS011;8803;48.116;11.590;2022-09-16T08:17:22;7.17;;;5.80;;
17372;SDS011;8803;48.116;11.590;2022-09-16T08:19:26;6.20;;;5.33;;
17372;SDS011;8803;48.116;11.590;2022-09-16T08:21:39;5.43;;;4.90;;
17372;SDS011;8803;48.116;11.590;2022-09-16T08:23:42;5.97;;;5.37;;
17372;SDS011;8803;48.116;11.590;2022-09-16T08:25:57;7.77;;;5.83;;
17372;SDS011;8803;48.116;11.590;2022-09-16T08:28:02;5.37;;;4.73;;
17372;SDS011;8803;48.116;11.590;2022-09-16T08:30:15;5.60;;;5.00;;
17372;SDS011;8803;48.116;11.590;2022-09-16T08:32:18;6.43;;;5.17;;
17372;SDS011;8803;48.116;11.590;2022-09-16T08:34:31;7.60;;;5.63;;
17372;SDS011;8803;48.116;11.590;2022-09-16T08:36:35;5.43;;;4.30;;
17372;SDS011;8803;48.116;11.590;2022-09-16T08:40:50;5.77;;;4.87;;
17372;SDS011;8803;48.116;11.590;2022-09-16T08:42:59;8.53;;;5.10;;
17372;SDS011;8803;48.116;11.590;2022-09-16T08:45:10;5.73;;;4.87;;
17372;SDS011;8803;48.116;11.590;2022-09-16T08:47:24;6.03;;;5.43;;
17372;SDS011;8803;48.116;11.590;2022-09-16T08:49:38;6.40;;;5.03;;
17372;SDS011;8803;48.116;11.590;2022-09-16T08:51:44;5.63;;;4.50;;
17372;SDS011;8803;48.116;11.590;2022-09-16T08:53:50;6.70;;;4.77;;
17372;SDS011;8803;48.116;11.590;2022-09-16T08:56:04;6.10;;;5.43;;
17372;SDS011;8803;48.116;11.590;2022-09-16T09:00:22;4.83;;;4.43;;
17372;SDS011;8803;48.116;11.590;2022-09-16T09:02:38;5.57;;;4.90;;
17372;SDS011;8803;48.116;11.590;2022-09-16T09:04:47;5.50;;;5.00;;
17372;SDS011;8803;48.116;11.590;2022-09-16T09:06:55;4.97;;;4.47;;
17372;SDS011;8803;48.116;11.590;2022-09-16T09:09:12;4.80;;;4.30;;
17372;SDS011;8803;48.116;11.590;2022-09-16T09:11:20;5.70;;;4.70;;
17372;SDS011;8803;48.116;11.590;2022-09-16T09:13:39;4.80;;;4.10;;
17372;SDS011;8803;48.116;11.590;2022-09-16T09:16:06;5.27;;;4.77;;
17372;SDS011;8803;48.116;11.590;2022-09-16T09:18:26;4.50;;;4.10;;
17372;SDS011;8803;48.116;11.590;2022-09-16T09:20:48;6.23;;;4.67;;
17372;SDS011;8803;48.116;11.590;2022-09-16T09:22:52;6.17;;;4.40;;
17372;SDS011;8803;48.116;11.590;2022-09-16T09:25:04;4.57;;;4.00;;
17372;SDS011;8803;48.116;11.590;2022-09-16T09:27:14;5.27;;;4.10;;
17372;SDS011;8803;48.116;11.590;2022-09-16T09:29:40;5.60;;;4.10;;
17372;SDS011;8803;48.116;11.590;2022-09-16T09:31:52;6.10;;;4.43;;
17372;SDS011;8803;48.116;11.590;2022-09-16T09:34:14;5.90;;;4.27;;
17372;SDS011;8803;48.116;11.590;2022-09-16T09:36:23;6.13;;;5.17;;
17372;SDS011;8803;48.116;11.590;2022-09-16T09:38:42;5.33;;;4.27;;
17372;SDS011;8803;48.116;11.590;2022-09-16T09:40:51;5.50;;;4.87;;
17372;SDS011;8803;48.116;11.590;2022-09-16T09:43:05;5.67;;;5.03;;
17372;SDS011;8803;48.116;11.590;2022-09-16T09:45:15;5.53;;;5.00;;
17372;SDS011;8803;48.116;11.590;2022-09-16T09:47:25;6.00;;;5.27;;
17372;SDS011;8803;48.116;11.590;2022-09-16T09:49:34;6.03;;;5.43;;
17372;SDS011;8803;48.116;11.590;2022-09-16T09:51:47;7.77;;;5.40;;
17372;SDS011;8803;48.116;11.590;2022-09-16T09:53:55;5.50;;;5.00;;
17372;SDS011;8803;48.116;11.590;2022-09-16T09:56:03;6.97;;;6.10;;
17372;SDS011;8803;48.116;11.590;2022-09-16T09:58:20;5.53;;;5.03;;
17372;SDS011;8803;48.116;11.590;2022-09-16T10:00:27;5.63;;;4.90;;
17372;SDS011;8803;48.116;11.590;2022-09-16T10:02:40;9.23;;;5.93;;
17372;SDS011;8803;48.116;11.590;2022-09-16T10:04:45;6.63;;;5.47;;
17372;SDS011;8803;48.116;11.590;2022-09-16T10:06:50;6.40;;;5.03;;
17372;SDS011;8803;48.116;11.590;2022-09-16T10:11:14;5.53;;;5.03;;
17372;SDS011;8803;48.116;11.590;2022-09-16T10:13:20;6.60;;;5.67;;
17372;SDS011;8803;48.116;11.590;2022-09-16T10:15:33;7.20;;;5.70;;
17372;SDS011;8803;48.116;11.590;2022-09-16T10:17:37;6.73;;;5.77;;
17372;SDS011;8803;48.116;11.590;2022-09-16T10:19:54;5.83;;;5.23;;
17372;SDS011;8803;48.116;11.590;2022-09-16T10:22:08;5.90;;;5.30;;
17372;SDS011;8803;48.116;11.590;2022-09-16T10:24:27;5.77;;;5.17;;
17372;SDS011;8803;48.116;11.590;2022-09-16T10:26:38;6.87;;;5.60;;
17372;SDS011;8803;48.116;11.590;2022-09-16T10:29:00;7.20;;;6.00;;
17372;SDS011;8803;48.116;11.590;2022-09-16T10:31:05;5.93;;;5.33;;
17372;SDS011;8803;48.116;11.590;2022-09-16T10:33:21;5.83;;;5.27;;
17372;SDS011;8803;48.116;11.590;2022-09-16T10:35:27;6.67;;;5.80;;
17372;SDS011;8803;48.116;11.590;2022-09-16T10:37:31;6.07;;;5.30;;
17372;SDS011;8803;48.116;11.590;2022-09-16T10:39:45;6.73;;;6.03;;
17372;SDS011;8803;48.116;11.590;2022-09-16T10:41:53;7.13;;;6.13;;
17372;SDS011;8803;48.116;11.590;2022-09-16T10:43:59;7.77;;;6.63;;
17372;SDS011;8803;48.116;11.590;2022-09-16T10:46:03;6.97;;;6.27;;
17372;SDS011;8803;48.116;11.590;2022-09-16T10:48:10;8.47;;;6.60;;
17372;SDS011;8803;48.116;11.590;2022-09-16T10:50:24;6.33;;;5.73;;
17372;SDS011;8803;48.116;11.590;2022-09-16T10:52:28;6.57;;;5.90;;
17372;SDS011;8803;48.116;11.590;2022-09-16T10:54:43;7.07;;;6.30;;
17372;SDS011;8803;48.116;11.590;2022-09-16T10:56:48;6.93;;;6.33;;
17372;SDS011;8803;48.116;11.590;2022-09-16T10:59:03;7.83;;;6.60;;
17372;SDS011;8803;48.116;11.590;2022-09-16T11:01:25;5.67;;;5.17;;
17372;SDS011;8803;48.116;11.590;2022-09-16T11:06:21;6.90;;;5.60;;
17372;SDS011;8803;48.116;11.590;2022-09-16T11:08:36;6.43;;;5.83;;
17372;SDS011;8803;48.116;11.590;2022-09-16T11:10:52;6.77;;;5.67;;
17372;SDS011;8803;48.116;11.590;2022-09-16T11:13:01;6.20;;;5.57;;
17372;SDS011;8803;48.116;11.590;2022-09-16T11:15:16;7.50;;;6.23;;
17372;SDS011;8803;48.116;11.590;2022-09-16T11:17:33;7.00;;;6.13;;
17372;SDS011;8803;48.116;11.590;2022-09-16T11:19:50;7.10;;;5.43;;
17372;SDS011;8803;48.116;11.590;2022-09-16T11:21:55;4.97;;;4.53;;
17372;SDS011;8803;48.116;11.590;2022-09-16T11:26:19;6.87;;;4.03;;
17372;SDS011;8803;48.116;11.590;2022-09-16T11:30:46;5.53;;;4.33;;
17372;SDS011;8803;48.116;11.590;2022-09-16T11:32:59;4.70;;;4.20;;
17372;SDS011;8803;48.116;11.590;2022-09-16T11:37:23;5.03;;;4.40;;
17372;SDS011;8803;48.116;11.590;2022-09-16T11:39:33;4.87;;;4.00;;
17372;SDS011;8803;48.116;11.590;2022-09-16T11:41:54;4.37;;;3.97;;
17372;SDS011;8803;48.116;11.590;2022-09-16T11:46:32;6.00;;;4.30;;
17372;SDS011;8803;48.116;11.590;2022-09-16T11:48:55;6.60;;;4.50;;
17372;SDS011;8803;48.116;11.590;2022-09-16T11:51:04;4.20;;;3.80;;
17372;SDS011;8803;48.116;11.590;2022-09-16T11:53:36;4.07;;;3.47;;
17372;SDS011;8803;48.116;11.590;2022-09-16T11:55:54;5.10;;;3.90;;
17372;SDS011;8803;48.116;11.590;2022-09-16T11:58:01;4.33;;;3.87;;
17372;SDS011;8803;48.116;11.590;2022-09-16T12:00:15;4.10;;;3.10;;
17372;SDS011;8803;48.116;11.590;2022-09-16T12:02:21;5.10;;;2.70;;
17372;SDS011;8803;48.116;11.590;2022-09-16T12:04:28;3.73;;;3.20;;
17372;SDS011;8803;48.116;11.590;2022-09-16T12:06:41;3.47;;;3.10;;
17372;SDS011;8803;48.116;11.590;2022-09-16T12:08:52;3.90;;;3.30;;
17372;SDS011;8803;48.116;11.590;2022-09-16T12:11:15;3.47;;;3.17;;
17372;SDS011;8803;48.116;11.590;2022-09-16T12:13:16;3.67;;;3.03;;
17372;SDS011;8803;48.116;11.590;2022-09-16T12:15:23;5.53;;;3.37;;
17372;SDS011;8803;48.116;11.590;2022-09-16T12:17:36;5.00;;;3.77;;
17372;SDS011;8803;48.116;11.590;2022-09-16T12:19:44;3.77;;;3.43;;
17372;SDS011;8803;48.116;11.590;2022-09-16T12:22:00;4.97;;;3.70;;
17372;SDS011;8803;48.116;11.590;2022-09-16T12:24:08;4.13;;;3.33;;
17372;SDS011;8803;48.116;11.590;2022-09-16T12:26:15;3.83;;;2.83;;
17372;SDS011;8803;48.116;11.590;2022-09-16T12:28:28;4.17;;;3.13;;
17372;SDS011;8803;48.116;11.590;2022-09-16T12:30:34;4.17;;;3.30;;
17372;SDS011;8803;48.116;11.590;2022-09-16T12:32:53;4.90;;;3.23;;
17372;SDS011;8803;48.116;11.590;2022-09-16T12:35:01;4.20;;;3.50;;
17372;SDS011;8803;48.116;11.590;2022-09-16T12:37:10;4.80;;;3.90;;
17372;SDS011;8803;48.116;11.590;2022-09-16T12:39:23;4.30;;;3.83;;
17372;SDS011;8803;48.116;11.590;2022-09-16T12:41:34;3.13;;;2.80;;
17372;SDS011;8803;48.116;11.590;2022-09-16T12:43:55;4.40;;;3.40;;
17372;SDS011;8803;48.116;11.590;2022-09-16T12:46:27;4.53;;;3.20;;
17372;SDS011;8803;48.116;11.590;2022-09-16T12:51:29;2.90;;;2.70;;
17372;SDS011;8803;48.116;11.590;2022-09-16T12:53:45;3.70;;;3.00;;
17372;SDS011;8803;48.116;11.590;2022-09-16T12:56:00;3.20;;;2.90;;
17372;SDS011;8803;48.116;11.590;2022-09-16T13:03:24;4.13;;;3.50;;
17372;SDS011;8803;48.116;11.590;2022-09-16T13:05:31;3.00;;;2.70;;
17372;SDS011;8803;48.116;11.590;2022-09-16T13:09:57;2.70;;;2.40;;
17372;SDS011;8803;48.116;11.590;2022-09-16T13:12:03;3.60;;;2.30;;
17372;SDS011;8803;48.116;11.590;2022-09-16T13:14:20;2.47;;;2.10;;
17372;SDS011;8803;48.116;11.590;2022-09-16T13:16:26;2.67;;;2.07;;
17372;SDS011;8803;48.116;11.590;2022-09-16T13:18:43;4.27;;;2.03;;
17372;SDS011;8803;48.116;11.590;2022-09-16T13:20:56;3.00;;;2.00;;
17372;SDS011;8803;48.116;11.590;2022-09-16T13:23:04;5.63;;;2.40;;
17372;SDS011;8803;48.116;11.590;2022-09-16T13:25:11;2.80;;;2.17;;
17372;SDS011;8803;48.116;11.590;2022-09-16T13:27:32;3.80;;;2.30;;
17372;SDS011;8803;48.116;11.590;2022-09-16T13:29:41;2.60;;;2.20;;
17372;SDS011;8803;48.116;11.590;2022-09-16T13:31:46;2.83;;;2.10;;
17372;SDS011;8803;48.116;11.590;2022-09-16T13:34:09;2.73;;;2.10;;
17372;SDS011;8803;48.116;11.590;2022-09-16T13:36:27;2.73;;;2.10;;
17372;SDS011;8803;48.116;11.590;2022-09-16T13:38:41;3.17;;;1.90;;
17372;SDS011;8803;48.116;11.590;2022-09-16T13:40:54;2.43;;;2.00;;
17372;SDS011;8803;48.116;11.590;2022-09-16T13:43:12;2.47;;;1.90;;
17372;SDS011;8803;48.116;11.590;2022-09-16T13:45:33;2.40;;;2.20;;
17372;SDS011;8803;48.116;11.590;2022-09-16T13:47:38;2.10;;;1.90;;
17372;SDS011;8803;48.116;11.590;2022-09-16T13:49:53;2.00;;;1.70;;
17372;SDS011;8803;48.116;11.590;2022-09-16T13:52:07;3.03;;;1.90;;
17372;SDS011;8803;48.116;11.590;2022-09-16T13:54:21;3.80;;;2.30;;
17372;SDS011;8803;48.116;11.590;2022-09-16T13:56:39;2.60;;;2.20;;
17372;SDS011;8803;48.116;11.590;2022-09-16T13:58:49;3.63;;;2.17;;
17372;SDS011;8803;48.116;11.590;2022-09-16T14:01:03;3.07;;;2.40;;
17372;SDS011;8803;48.116;11.590;2022-09-16T14:03:15;3.83;;;2.90;;
17372;SDS011;8803;48.116;11.590;2022-09-16T14:05:41;3.90;;;2.87;;
17372;SDS011;8803;48.116;11.590;2022-09-16T14:07:50;4.77;;;2.97;;
17372;SDS011;8803;48.116;11.590;2022-09-16T14:10:07;4.43;;;4.03;;
17372;SDS011;8803;48.116;11.590;2022-09-16T14:12:15;12.40;;;10.50;;
17372;SDS011;8803;48.116;11.590;2022-09-16T14:14:27;10.50;;;9.40;;